• Join FlightAware (Why Join?)
  • Login
  • US Flag 
06:54AM EDT


 

Airport Tracker/Info


-or-


 

Live Flight TrackerFlight Track Log ✈ PVL1910 ✈ 16-May-2013 ✈ CYUL - CYZV

Flight Track Log - Related Links

Times and Time Zones

All times are in EDT time to prevent confusion due to time zone crossing. See the PVL1910 flight status page for this flight to view local times or setup timezone preferences in your user account.

Time Position Orientation Groundspeed Altitude Reporting Facility
EDT Latitude Longitude Course Direction KTS MPH feet Rate Location/Type
02:16PM 45.4500 -73.7167 29° Northeast 100 115 700  Level Montreal Center
02:17PM 45.4500 -73.7667 270° West 130 150 2,900 1,920 Climbing Montreal Center
02:18PM 45.4833 -73.8167 314° West 130 150 4,600 1,680 Climbing Montreal Center
02:19PM 45.5167 -73.8167 360° North 190 219 6,300 1,620 Climbing Montreal Center
02:20PM 45.5667 -73.7833 25° Northeast 200 230 7,900 1,740 Climbing Montreal Center
02:21PM 45.8340 -73.4361 29° Northeast  Level FlightAware Approximate
02:21PM 45.6167 -73.7333 35° Northeast 200 230 9,800  Level Montreal Center
02:22PM 45.6667 -73.6833 35° Northeast 210 242 11,300 1,560 Climbing Montreal Center
02:23PM 45.7167 -73.6333 35° Northeast 210 242 13,000 1,500 Climbing Montreal Center
02:24PM 45.7667 -73.5833 35° Northeast 220 253 14,300 1,200 Climbing Montreal Center
02:25PM 45.8167 -73.5333 35° Northeast 230 265 15,400 1,140 Climbing Montreal Center
02:26PM 45.8667 -73.4833 35° Northeast 230 265 16,600 1,080 Climbing Montreal Center
02:27PM 45.9167 -73.4333 35° Northeast 230 265 17,600 1,080 Climbing Montreal Center
02:28PM 45.9833 -73.3667 35° Northeast 240 276 18,800 1,020 Climbing Montreal Center
02:29PM 46.0167 -73.2833 60° Northeast 250 288 19,700 900 Climbing Montreal Center
02:30PM 46.0667 -73.2167 43° Northeast 240 276 20,600 600 Climbing Montreal Center
02:31PM 46.1000 -73.1333 60° Northeast 250 288 21,000 180 Climbing Montreal Center
02:32PM 46.1500 -73.0333 54° Northeast 270 311 21,000  Level Montreal Center
02:33PM 46.2000 -72.9667 43° Northeast 280 322 21,000  Level Montreal Center
02:34PM 46.2500 -72.8667 54° Northeast 290 334 21,000  Level Montreal Center
02:35PM 46.3000 -72.7667 54° Northeast 290 334 21,000  Level Montreal Center
02:36PM 46.3500 -72.6833 49° Northeast 290 334 21,000  Level Montreal Center
02:37PM 46.4167 -72.5833 46° Northeast 290 334 21,000  Level Montreal Center
02:38PM 46.4500 -72.4833 64° Northeast 290 334 21,000  Level Montreal Center
02:39PM 46.5000 -72.4167 43° Northeast 290 334 21,000  Level Montreal Center
02:40PM 46.5500 -72.3000 58° Northeast 290 334 21,000  Level Montreal Center
02:41PM 46.6000 -72.2333 42° Northeast 290 334 21,000  Level Montreal Center
02:42PM 46.6667 -72.1333 46° Northeast 290 334 21,000  Level Montreal Center
02:43PM 46.7167 -72.0333 54° Northeast 290 334 21,000  Level Montreal Center
02:44PM 46.7667 -71.9500 49° Northeast 290 334 21,000  Level Montreal Center
02:45PM 46.8000 -71.8500 64° Northeast 290 334 21,000  Level Montreal Center
02:46PM 46.8500 -71.7500 54° Northeast 290 334 21,000  Level Montreal Center
02:47PM 46.9167 -71.6667 40° Northeast 290 334 21,000  Level Montreal Center
02:48PM 46.9667 -71.5667 54° Northeast 290 334 21,000  Level Montreal Center
02:49PM 47.0000 -71.4667 64° Northeast 290 334 21,000  Level Montreal Center
02:50PM 47.0667 -71.3500 50° Northeast 290 334 21,000  Level Montreal Center
02:51PM 47.1167 -71.2833 42° Northeast 290 334 21,000  Level Montreal Center
02:52PM 47.1667 -71.1833 54° Northeast 290 334 21,000  Level Montreal Center
02:53PM 47.2167 -71.0667 58° Northeast 290 334 21,000  Level Montreal Center
02:54PM 47.2500 -71.0000 54° Northeast 300 345 21,000  Level Montreal Center
02:55PM 47.3167 -70.8833 50° Northeast 290 334 21,000  Level Montreal Center
02:56PM 47.3667 -70.7833 54° Northeast 290 334 21,000  Level Montreal Center
02:57PM 47.4167 -70.7000 48° Northeast 290 334 21,000  Level Montreal Center
02:58PM 47.4500 -70.6000 64° Northeast 290 334 21,000  Level Montreal Center
02:59PM 47.5000 -70.5000 53° Northeast 300 345 21,000  Level Montreal Center
03:00PM 47.5667 -70.4167 40° Northeast 290 334 21,000  Level Montreal Center
03:01PM 47.6167 -70.3167 53° Northeast 290 334 21,000  Level Montreal Center
03:02PM 47.6667 -70.2333 48° Northeast 290 334 21,000  Level Montreal Center
03:03PM 47.7333 -70.1500 40° Northeast 290 334 21,000  Level Montreal Center
03:04PM 47.8000 -70.0667 40° Northeast 280 322 21,000  Level Montreal Center
03:05PM 47.8500 -69.9833 48° Northeast 280 322 21,000  Level Montreal Center
03:06PM 47.9000 -69.9000 48° Northeast 290 334 21,000  Level Montreal Center
03:07PM 47.9667 -69.8167 40° Northeast 290 334 21,000  Level Montreal Center
03:08PM 48.0167 -69.7667 34° Northeast 280 322 21,000  Level Montreal Center
03:09PM 48.0833 -69.6833 40° Northeast 280 322 21,000  Level Montreal Center
03:10PM 48.1500 -69.6000 40° Northeast 280 322 21,000  Level Montreal Center
03:11PM 48.1833 -69.5167 59° Northeast 280 322 21,000  Level Montreal Center
03:12PM 48.2500 -69.4333 40° Northeast 280 322 21,000  Level Montreal Center
03:13PM 48.3167 -69.3500 40° Northeast 280 322 21,000  Level Montreal Center
03:14PM 48.3833 -69.2500 45° Northeast 280 322 21,000  Level Montreal Center
03:15PM 48.4167 -69.1667 59° Northeast 280 322 21,000  Level Montreal Center
03:16PM 48.4833 -69.1167 26° Northeast 280 322 21,000  Level Montreal Center
03:17PM 48.5500 -69.0333 40° Northeast 280 322 21,000  Level Montreal Center
03:18PM 48.6000 -68.9500 48° Northeast 280 322 21,000  Level Montreal Center
03:19PM 48.6500 -68.8667 48° Northeast 280 322 21,000  Level Montreal Center
03:20PM 48.7167 -68.7833 40° Northeast 280 322 21,000  Level Montreal Center
03:21PM 48.7833 -68.6833 45° Northeast 280 322 21,000  Level Montreal Center
03:22PM 48.8167 -68.6333 45° Northeast 280 322 21,000  Level Montreal Center
03:23PM 48.8833 -68.5167 49° Northeast 290 334 21,000  Level Montreal Center
03:24PM 48.9500 -68.4500 33° Northeast 290 334 21,000  Level Montreal Center
03:25PM 49.0167 -68.3667 39° Northeast 290 334 21,000  Level Montreal Center
03:26PM 49.0500 -68.2833 59° Northeast 290 334 21,000  Level Montreal Center
03:27PM 49.1167 -68.2000 39° Northeast 290 334 21,000  Level Montreal Center
03:28PM 49.1833 -68.1167 39° Northeast 290 334 21,000  Level Montreal Center
03:29PM 49.2333 -68.0167 53° Northeast 290 334 21,000  Level Montreal Center
03:30PM 49.3000 -67.9333 39° Northeast 290 334 21,000  Level Montreal Center
03:31PM 49.3500 -67.8500 47° Northeast 290 334 21,000 -240 Level Montreal Center
03:32PM 49.4000 -67.7333 57° Northeast 290 334 20,600 -900 Descending Montreal Center
03:33PM 49.4667 -67.6500 39° Northeast 300 345 19,200 -1,680 Descending Montreal Center
03:34PM 49.5167 -67.5667 47° Northeast 310 357 17,300 -1,560 Descending Montreal Center
03:35PM 49.5833 -67.4667 44° Northeast 310 357 16,100 -900 Descending Montreal Center
03:36PM 49.6500 -67.3833 39° Northeast 300 345 15,500 -1,080 Descending Montreal Center
03:37PM 49.7000 -67.2667 56° Northeast 300 345 14,000 -1,500 Descending Montreal Center
03:38PM 49.7500 -67.1833 47° Northeast 300 345 12,600 -1,440 Descending Montreal Center
03:39PM 49.8167 -67.0833 44° Northeast 280 322 11,200 -1,260 Descending Montreal Center
03:40PM 49.8500 -67.0333 44° Northeast 270 311 10,100 -1,200 Descending Montreal Center
03:41PM 49.9167 -66.9333 44° Northeast 270 311 8,800 -1,200 Descending Montreal Center
03:42PM 49.9667 -66.8500 47° Northeast 260 299 7,700 -1,080 Descending Montreal Center
03:43PM 50.0000 -66.7833 52° Northeast 240 276 6,700 -1,020 Descending Montreal Center
03:44PM 50.0500 -66.7000 47° Northeast 230 265 5,700 -840 Descending Montreal Center
03:45PM 50.1000 -66.6333 41° Northeast 220 253 5,100 -600 Descending Montreal Center
03:46PM 50.1167 -66.5833 63° Northeast 190 219 4,600 -600 Descending Montreal Center
03:47PM 50.1333 -66.5333 63° Northeast 160 184 4,000 -780 Descending Montreal Center
03:48PM 50.1500 -66.4667 69° East 140 161 3,100 -840 Descending Montreal Center
03:49PM 50.1667 -66.4167 62° Northeast 140 161 2,400 -660 Descending Montreal Center
03:50PM 50.1667 -66.3667 90° East 110 127 1,800 -540 Descending Montreal Center
03:51PM 50.1833 -66.3333 52° Northeast 100 115 1,400 -540 Descending Montreal Center
03:52PM 50.2000 -66.2667 69° East 100 115 800 -600 Descending Montreal Center
03:53PM 50.2167 -66.2500 33° Northeast 100 115 200 -600 Descending Montreal Center